Time;durP1;ratioP1;P1;durP2;ratioP2;P2;SDS_P1;SDS_P2;PMS_P1;PMS_P2;Temp;Humidity;BMP_temperature;BMP_pressure;BME280_temperature;BME280_humidity;BME280_pressure;Samples;Min_cycle;Max_cycle;Signal;HPM_P1;HPM_P2
2023/06/24 00:06:27;;;;;;;;;;;;;;;14.34;100.00;98547.75;18560862;32;19964;-59
2023/06/24 00:16:29;;;;;;;;;;;;;;;14.30;100.00;98546.66;18561630;32;19956;-59
2023/06/24 00:26:32;;;;;;;;;;;;;;;14.16;100.00;98544.50;18560401;32;19948;-59
2023/06/24 00:36:38;;;;;;;;;;;;;;;14.04;100.00;98546.66;18560508;32;19973;-59
2023/06/24 00:46:41;;;;;;;;;;;;;;;13.94;100.00;98549.38;18560272;32;19961;-60
2023/06/24 00:56:43;;;;;;;;;;;;;;;13.83;100.00;98543.94;18559935;32;19972;-59
2023/06/24 01:06:46;;;;;;;;;;;;;;;13.76;100.00;98546.09;18559699;32;19981;-59
2023/06/24 01:16:52;;;;;;;;;;;;;;;13.70;100.00;98558.88;18553157;32;19960;-59
2023/06/24 01:26:58;;;;;;;;;;;;;;;13.57;100.00;98551.22;18556290;31;19975;-59
2023/06/24 01:37:29;;;;;;;;;;;;;;;13.56;100.00;98560.44;18569970;31;20036;-59
2023/06/24 01:47:32;;;;;;;;;;;;;;;13.47;100.00;98562.88;18302872;32;20326;-59
2023/06/24 01:57:35;;;;;;;;;;;;;;;13.39;100.00;98549.81;18302509;32;20358;-59
2023/06/24 02:07:39;;;;;;;;;;;;;;;13.28;100.00;98553.53;18289082;32;19966;-59
2023/06/24 02:17:42;;;;;;;;;;;;;;;13.21;100.00;98557.31;18368888;32;19983;-60
2023/06/24 02:27:44;;;;;;;;;;;;;;;13.21;100.00;98548.38;18566091;32;19972;-59
2023/06/24 02:37:47;;;;;;;;;;;;;;;13.10;100.00;98552.94;18566070;32;19948;-59
2023/06/24 02:47:49;;;;;;;;;;;;;;;13.03;100.00;98546.91;18551550;32;19979;-59
2023/06/24 02:57:53;;;;;;;;;;;;;;;12.92;100.00;98551.47;18564983;32;19957;-59
2023/06/24 03:07:56;;;;;;;;;;;;;;;12.85;100.00;98549.00;18564528;32;19960;-59
2023/06/24 03:17:59;;;;;;;;;;;;;;;12.77;100.00;98549.50;18563911;32;19953;-59
2023/06/24 03:28:03;;;;;;;;;;;;;;;12.71;100.00;98566.81;18562945;32;19976;-59
2023/06/24 03:38:06;;;;;;;;;;;;;;;12.65;100.00;98571.41;18563156;32;19952;-59
2023/06/24 03:48:09;;;;;;;;;;;;;;;12.59;100.00;98575.16;18562251;32;19945;-59
2023/06/24 03:58:11;;;;;;;;;;;;;;;12.61;100.00;98580.34;18561611;32;20005;-59
2023/06/24 04:08:14;;;;;;;;;;;;;;;12.63;100.00;98580.88;18561486;32;20291;-59
2023/06/24 04:18:18;;;;;;;;;;;;;;;12.65;100.00;98590.41;18561263;32;19997;-59
2023/06/24 04:28:21;;;;;;;;;;;;;;;12.72;100.00;98606.47;18560199;32;19964;-59
2023/06/24 04:38:24;;;;;;;;;;;;;;;12.89;100.00;98595.44;18560454;32;19984;-59
2023/06/24 04:48:26;;;;;;;;;;;;;;;13.14;100.00;98599.37;18550544;32;20001;-59
2023/06/24 04:58:29;;;;;;;;;;;;;;;13.37;100.00;98603.56;18572500;32;19961;-59
2023/06/24 05:08:32;;;;;;;;;;;;;;;13.63;100.00;98609.13;18572019;32;19994;-59
2023/06/24 05:18:34;;;;;;;;;;;;;;;13.88;100.00;98602.91;18571098;31;19967;-59
2023/06/24 05:28:37;;;;;;;;;;;;;;;14.15;100.00;98605.41;18556444;32;19971;-59
2023/06/24 05:38:39;;;;;;;;;;;;;;;14.48;100.00;98613.31;18570065;32;19957;-59
2023/06/24 05:48:42;;;;;;;;;;;;;;;14.88;100.00;98628.84;18569583;32;19959;-59
2023/06/24 05:58:44;;;;;;;;;;;;;;;15.32;100.00;98632.00;18554438;32;19956;-60
2023/06/24 06:08:47;;;;;;;;;;;;;;;15.72;100.00;98636.47;18568458;32;19961;-59
2023/06/24 06:18:50;;;;;;;;;;;;;;;16.14;100.00;98633.56;18567621;32;20345;-59
2023/06/24 06:28:53;;;;;;;;;;;;;;;16.66;100.00;98625.78;18566839;32;19971;-60
2023/06/24 06:38:56;;;;;;;;;;;;;;;17.19;100.00;98625.03;18566368;32;20008;-60
2023/06/24 06:48:59;;;;;;;;;;;;;;;17.75;100.00;98613.41;18551603;32;19948;-59
2023/06/24 06:59:03;;;;;;;;;;;;;;;18.29;100.00;98611.31;18565045;32;20004;-60
2023/06/24 07:09:07;;;;;;;;;;;;;;;18.85;100.00;98619.69;18563887;31;19971;-57
2023/06/24 07:19:10;;;;;;;;;;;;;;;19.24;100.00;98615.72;18563920;32;19971;-56
2023/06/24 07:29:13;;;;;;;;;;;;;;;19.67;100.00;98611.81;18548606;32;19968;-57
2023/06/24 07:39:20;;;;;;;;;;;;;;;20.09;100.00;98611.75;18562659;32;19953;-57
2023/06/24 07:49:22;;;;;;;;;;;;;;;20.39;100.00;98609.41;18548079;32;20273;-57
2023/06/24 07:59:25;;;;;;;;;;;;;;;20.73;100.00;98602.56;18561610;32;19956;-57
2023/06/24 08:09:28;;;;;;;;;;;;;;;21.18;100.00;98599.69;18561367;32;19948;-56
2023/06/24 08:19:30;;;;;;;;;;;;;;;21.49;99.35;98588.63;18546888;32;19964;-54
2023/06/24 08:29:33;;;;;;;;;;;;;;;21.95;93.45;98578.22;18558512;32;19944;-53
2023/06/24 08:39:38;;;;;;;;;;;;;;;22.38;93.69;98573.03;18545767;32;20331;-54
2023/06/24 08:49:49;;;;;;;;;;;;;;;22.72;87.98;98576.88;18572829;32;19963;-51
2023/06/24 08:59:54;;;;;;;;;;;;;;;23.05;89.86;98562.47;18571702;31;19961;-55
2023/06/24 09:09:57;;;;;;;;;;;;;;;23.43;87.34;98564.44;18558043;32;19962;-54
2023/06/24 09:20:07;;;;;;;;;;;;;;;23.69;82.27;98565.09;18571060;32;20016;-54
2023/06/24 09:30:20;;;;;;;;;;;;;;;24.07;78.09;98552.31;18570251;32;20286;-53
2023/06/24 09:40:24;;;;;;;;;;;;;;;24.41;73.54;98539.31;18569815;32;19964;-53
2023/06/24 09:50:31;;;;;;;;;;;;;;;24.70;72.82;98535.59;18569628;32;20298;-54
2023/06/24 10:00:34;;;;;;;;;;;;;;;25.13;70.87;98516.88;18568673;32;19944;-51
2023/06/24 10:10:38;;;;;;;;;;;;;;;25.16;61.29;98507.87;18568459;32;19948;-52
2023/06/24 10:20:40;;;;;;;;;;;;;;;25.65;69.77;98501.47;18567849;32;19948;-55
2023/06/24 10:30:54;;;;;;;;;;;;;;;26.37;57.80;98488.84;18566836;32;19952;-52
2023/06/24 10:40:57;;;;;;;;;;;;;;;26.80;60.41;98481.66;18566706;32;20242;-55
2023/06/24 10:51:00;;;;;;;;;;;;;;;27.22;52.07;98475.50;18565424;31;20257;-55
2023/06/24 11:01:08;;;;;;;;;;;;;;;27.16;50.38;98449.22;18565126;32;19957;-53
2023/06/24 11:11:18;;;;;;;;;;;;;;;27.44;46.81;98448.25;18564813;32;20063;-55
2023/06/24 11:21:27;;;;;;;;;;;;;;;27.76;46.75;98431.44;18564051;32;19968;-56
2023/06/24 11:31:32;;;;;;;;;;;;;;;28.21;48.12;98429.94;18563346;32;19944;-56
2023/06/24 11:41:36;;;;;;;;;;;;;;;28.36;45.71;98419.88;18563127;32;20295;-51
2023/06/24 11:51:47;;;;;;;;;;;;;;;28.67;45.31;98400.53;18562300;32;19999;-53
2023/06/24 12:01:54;;;;;;;;;;;;;;;28.82;46.05;98395.97;18561815;32;20307;-55
2023/06/24 12:11:57;;;;;;;;;;;;;;;29.13;45.84;98386.50;18561673;32;19983;-56
2023/06/24 12:22:00;;;;;;;;;;;;;;;29.41;46.25;98371.38;18561514;32;19983;-54
2023/06/24 12:32:03;;;;;;;;;;;;;;;29.83;45.45;98375.81;18560552;32;19991;-56
2023/06/24 12:42:06;;;;;;;;;;;;;;;30.35;44.50;98352.84;18546482;31;19980;-55
2023/06/24 12:52:09;;;;;;;;;;;;;;;30.83;39.07;98357.59;18546252;32;20012;-56
2023/06/24 13:02:13;;;;;;;;;;;;;;;30.89;39.37;98344.84;18560430;32;19989;-54
2023/06/24 13:12:16;;;;;;;;;;;;;;;31.22;38.81;98334.69;18567110;32;20004;-56
2023/06/24 13:22:19;;;;;;;;;;;;;;;31.87;40.35;98337.69;18571348;31;20000;-55
2023/06/24 13:32:23;;;;;;;;;;;;;;;32.22;37.03;98327.75;18570374;31;20024;-56
2023/06/24 13:42:26;;;;;;;;;;;;;;;32.76;39.63;98331.31;18570124;32;19952;-56
2023/06/24 13:52:28;;;;;;;;;;;;;;;33.13;35.84;98314.41;18569488;32;19967;-55
2023/06/24 14:02:31;;;;;;;;;;;;;;;32.40;38.89;98299.78;18554177;32;19948;-55
2023/06/24 14:12:34;;;;;;;;;;;;;;;33.18;36.71;98299.97;18568371;32;19989;-55
2023/06/24 14:22:37;;;;;;;;;;;;;;;33.56;34.61;98286.19;18566883;32;19956;-55
2023/06/24 14:32:40;;;;;;;;;;;;;;;34.00;33.66;98275.50;18552895;32;19972;-54
2023/06/24 14:42:43;;;;;;;;;;;;;;;34.10;34.69;98266.97;18566291;32;20002;-56
2023/06/24 14:52:46;;;;;;;;;;;;;;;33.95;31.29;98254.28;18565963;32;19963;-57
2023/06/24 15:02:52;;;;;;;;;;;;;;;33.78;33.16;98228.78;18550995;32;20333;-56
2023/06/24 15:12:56;;;;;;;;;;;;;;;32.49;36.36;98227.38;18550850;32;20304;-54
2023/06/24 15:22:59;;;;;;;;;;;;;;;31.22;36.72;98203.41;18563714;32;20031;-54
2023/06/24 15:33:02;;;;;;;;;;;;;;;30.41;37.23;98204.22;18562994;32;20341;-55
2023/06/24 15:43:05;;;;;;;;;;;;;;;29.55;40.59;98181.28;18549189;32;19956;-53
2023/06/24 15:53:08;;;;;;;;;;;;;;;28.97;40.51;98185.44;18562437;32;19970;-52
2023/06/24 16:03:11;;;;;;;;;;;;;;;28.67;39.13;98175.97;18547788;32;19968;-55
2023/06/24 16:13:14;;;;;;;;;;;;;;;28.38;40.60;98164.44;18561334;32;20288;-54
2023/06/24 16:23:17;;;;;;;;;;;;;;;28.03;41.89;98154.41;18561013;32;19976;-56
2023/06/24 16:33:23;;;;;;;;;;;;;;;27.79;39.53;98152.03;18560941;32;20021;-54
2023/06/24 16:43:33;;;;;;;;;;;;;;;27.80;43.07;98143.31;18549066;32;20005;-52
2023/06/24 16:53:37;;;;;;;;;;;;;;;28.17;42.75;98139.13;18573108;32;19957;-51
2023/06/24 17:03:42;;;;;;;;;;;;;;;27.62;40.64;98137.50;18572568;32;20012;-51
2023/06/24 17:13:46;;;;;;;;;;;;;;;27.07;42.79;98123.06;18572013;32;19967;-54
2023/06/24 17:23:49;;;;;;;;;;;;;;;27.22;42.11;98114.59;18557099;32;19957;-52
2023/06/24 17:33:52;;;;;;;;;;;;;;;26.86;42.63;98121.47;18570684;32;19991;-51
2023/06/24 17:43:57;;;;;;;;;;;;;;;27.13;41.83;98111.25;18555679;32;20348;-51
2023/06/24 17:54:01;;;;;;;;;;;;;;;26.66;42.45;98104.81;18569360;32;19961;-50
2023/06/24 18:04:05;;;;;;;;;;;;;;;26.74;42.11;98108.59;18554286;31;20352;-50
2023/06/24 18:14:45;;;;;;;;;;;;;;;31.05;36.82;98116.38;18554578;32;20305;-56
2023/06/24 18:24:53;;;;;;;;;;;;;;;33.65;30.34;98123.12;18289170;32;20076;-52
2023/06/24 18:34:57;;;;;;;;;;;;;;;28.88;34.54;98100.25;18300361;32;20014;-51
2023/06/24 18:45:00;;;;;;;;;;;;;;;26.65;39.80;98086.56;18300411;32;20330;-54
2023/06/24 18:55:04;;;;;;;;;;;;;;;25.28;45.60;98091.84;18357426;32;20002;-50
2023/06/24 19:05:07;;;;;;;;;;;;;;;24.47;46.98;98081.03;18550389;32;20333;-50
2023/06/24 19:15:10;;;;;;;;;;;;;;;23.92;50.41;98070.38;18550098;32;19960;-50
2023/06/24 19:25:13;;;;;;;;;;;;;;;23.34;57.41;98073.31;18549690;31;20008;-49
2023/06/24 19:35:16;;;;;;;;;;;;;;;22.70;69.26;98078.25;18536321;32;20000;-50
2023/06/24 19:45:19;;;;;;;;;;;;;;;22.02;75.96;98082.06;18562973;32;19956;-51
2023/06/24 19:55:22;;;;;;;;;;;;;;;21.42;85.06;98087.59;18562295;32;19997;-51
2023/06/24 20:05:24;;;;;;;;;;;;;;;20.90;93.54;98096.88;18561882;32;20302;-52
2023/06/24 20:15:27;;;;;;;;;;;;;;;20.43;100.00;98096.75;18561279;32;19953;-52
2023/06/24 20:25:29;;;;;;;;;;;;;;;20.01;100.00;98102.75;18561064;31;20289;-50
2023/06/24 20:35:32;;;;;;;;;;;;;;;19.58;100.00;98085.06;18560952;32;19976;-49
2023/06/24 20:45:34;;;;;;;;;;;;;;;19.23;100.00;98090.41;18560380;32;20022;-54
2023/06/24 20:55:37;;;;;;;;;;;;;;;18.91;100.00;98084.16;18560234;32;19971;-50
2023/06/24 21:05:39;;;;;;;;;;;;;;;18.60;100.00;98084.91;18560264;32;20012;-50
2023/06/24 21:15:42;;;;;;;;;;;;;;;18.32;100.00;98086.16;18560161;32;19944;-51
2023/06/24 21:25:47;;;;;;;;;;;;;;;18.03;100.00;98081.91;18559076;32;19964;-51
2023/06/24 21:35:52;;;;;;;;;;;;;;;17.78;100.00;98084.88;18569004;32;19968;-50
2023/06/24 21:46:02;;;;;;;;;;;;;;;17.59;100.00;98082.28;18555930;32;19952;-48
2023/06/24 21:56:05;;;;;;;;;;;;;;;17.39;100.00;98083.53;18569835;32;19948;-51
2023/06/24 22:06:07;;;;;;;;;;;;;;;17.18;100.00;98074.13;18569090;32;19965;-52
2023/06/24 22:16:10;;;;;;;;;;;;;;;16.99;100.00;98080.47;18568682;32;19941;-50
2023/06/24 22:26:13;;;;;;;;;;;;;;;16.80;100.00;98068.78;18553619;31;19960;-49
2023/06/24 22:36:15;;;;;;;;;;;;;;;16.61;100.00;98061.50;18566945;31;19952;-50
2023/06/24 22:46:17;;;;;;;;;;;;;;;16.42;100.00;98058.81;18565711;32;20332;-51
2023/06/24 22:56:24;;;;;;;;;;;;;;;16.24;100.00;98047.63;18565846;32;20325;-49
2023/06/24 23:06:32;;;;;;;;;;;;;;;16.12;100.00;98054.66;18565206;32;20005;-49
2023/06/24 23:16:48;;;;;;;;;;;;;;;16.02;100.00;98053.72;18564568;32;20337;-51
2023/06/24 23:27:03;;;;;;;;;;;;;;;15.90;100.00;98042.44;18563591;31;19990;-51
2023/06/24 23:37:13;;;;;;;;;;;;;;;15.78;100.00;98045.56;18563191;32;19944;-51
2023/06/24 23:47:20;;;;;;;;;;;;;;;15.67;100.00;98044.09;18562921;32;19956;-49
2023/06/24 23:57:45;;;;;;;;;;;;;;;15.55;100.00;98042.63;18562074;32;19975;-52
